sensor_id;sensor_type;location;lat;lon;timestamp;P1;durP1;ratioP1;P2;durP2;ratioP2
66886;SDS011;67239;51.680;5.976;2024-02-28T00:00:29;81.57;;;24.33;;
66886;SDS011;67239;51.680;5.976;2024-02-28T00:02:56;75.15;;;25.08;;
66886;SDS011;67239;51.680;5.976;2024-02-28T00:05:23;214.02;;;31.23;;
66886;SDS011;67239;51.680;5.976;2024-02-28T00:07:50;83.72;;;26.30;;
66886;SDS011;67239;51.680;5.976;2024-02-28T00:10:19;272.60;;;31.50;;
66886;SDS011;67239;51.680;5.976;2024-02-28T00:12:47;79.05;;;24.48;;
66886;SDS011;67239;51.680;5.976;2024-02-28T00:15:14;133.50;;;25.92;;
66886;SDS011;67239;51.680;5.976;2024-02-28T00:17:42;69.93;;;23.77;;
66886;SDS011;67239;51.680;5.976;2024-02-28T00:20:10;82.35;;;25.55;;
66886;SDS011;67239;51.680;5.976;2024-02-28T00:22:39;83.47;;;25.58;;
66886;SDS011;67239;51.680;5.976;2024-02-28T00:25:06;83.68;;;26.13;;
66886;SDS011;67239;51.680;5.976;2024-02-28T00:27:35;69.88;;;23.90;;
66886;SDS011;67239;51.680;5.976;2024-02-28T00:30:03;80.15;;;25.02;;
66886;SDS011;67239;51.680;5.976;2024-02-28T00:32:33;63.97;;;23.85;;
66886;SDS011;67239;51.680;5.976;2024-02-28T00:35:00;76.38;;;25.73;;
66886;SDS011;67239;51.680;5.976;2024-02-28T00:37:27;78.10;;;25.63;;
66886;SDS011;67239;51.680;5.976;2024-02-28T00:39:55;71.78;;;25.02;;
66886;SDS011;67239;51.680;5.976;2024-02-28T00:42:22;75.28;;;25.33;;
66886;SDS011;67239;51.680;5.976;2024-02-28T00:44:49;67.75;;;24.58;;
66886;SDS011;67239;51.680;5.976;2024-02-28T00:47:16;70.40;;;25.13;;
66886;SDS011;67239;51.680;5.976;2024-02-28T00:49:44;67.05;;;24.15;;
66886;SDS011;67239;51.680;5.976;2024-02-28T00:52:11;65.78;;;24.70;;
66886;SDS011;67239;51.680;5.976;2024-02-28T00:54:38;67.00;;;24.55;;
66886;SDS011;67239;51.680;5.976;2024-02-28T00:57:05;65.25;;;24.50;;
66886;SDS011;67239;51.680;5.976;2024-02-28T00:59:32;68.10;;;24.35;;
66886;SDS011;67239;51.680;5.976;2024-02-28T01:01:59;59.47;;;24.10;;
66886;SDS011;67239;51.680;5.976;2024-02-28T01:04:27;71.32;;;23.90;;
66886;SDS011;67239;51.680;5.976;2024-02-28T01:06:54;62.33;;;25.77;;
66886;SDS011;67239;51.680;5.976;2024-02-28T01:09:21;67.53;;;24.15;;
66886;SDS011;67239;51.680;5.976;2024-02-28T01:11:49;112.75;;;21.98;;
66886;SDS011;67239;51.680;5.976;2024-02-28T01:14:16;59.58;;;18.38;;
66886;SDS011;67239;51.680;5.976;2024-02-28T01:16:43;96.85;;;20.48;;
66886;SDS011;67239;51.680;5.976;2024-02-28T01:19:10;106.85;;;19.13;;
66886;SDS011;67239;51.680;5.976;2024-02-28T01:21:38;67.22;;;18.88;;
66886;SDS011;67239;51.680;5.976;2024-02-28T01:24:06;102.07;;;21.05;;
66886;SDS011;67239;51.680;5.976;2024-02-28T01:26:33;124.60;;;20.65;;
66886;SDS011;67239;51.680;5.976;2024-02-28T01:29:00;103.15;;;20.08;;
66886;SDS011;67239;51.680;5.976;2024-02-28T01:31:28;60.38;;;17.40;;
66886;SDS011;67239;51.680;5.976;2024-02-28T01:33:55;68.68;;;17.85;;
66886;SDS011;67239;51.680;5.976;2024-02-28T01:36:22;162.18;;;21.70;;
66886;SDS011;67239;51.680;5.976;2024-02-28T01:38:50;144.98;;;20.95;;
66886;SDS011;67239;51.680;5.976;2024-02-28T01:41:17;105.53;;;19.98;;
66886;SDS011;67239;51.680;5.976;2024-02-28T01:43:44;134.10;;;22.70;;
66886;SDS011;67239;51.680;5.976;2024-02-28T01:46:26;125.88;;;19.95;;
66886;SDS011;67239;51.680;5.976;2024-02-28T01:51:26;130.00;;;20.05;;
66886;SDS011;67239;51.680;5.976;2024-02-28T01:53:54;197.07;;;25.10;;
66886;SDS011;67239;51.680;5.976;2024-02-28T01:56:22;210.10;;;23.20;;
66886;SDS011;67239;51.680;5.976;2024-02-28T01:58:52;184.68;;;24.88;;
66886;SDS011;67239;51.680;5.976;2024-02-28T02:01:21;240.55;;;27.45;;
66886;SDS011;67239;51.680;5.976;2024-02-28T02:03:51;133.05;;;21.83;;
66886;SDS011;67239;51.680;5.976;2024-02-28T02:06:19;123.47;;;21.83;;
66886;SDS011;67239;51.680;5.976;2024-02-28T02:08:46;215.88;;;24.27;;
66886;SDS011;67239;51.680;5.976;2024-02-28T02:11:14;90.72;;;20.23;;
66886;SDS011;67239;51.680;5.976;2024-02-28T02:13:52;117.80;;;21.20;;
66886;SDS011;67239;51.680;5.976;2024-02-28T02:16:20;119.68;;;21.17;;
66886;SDS011;67239;51.680;5.976;2024-02-28T02:18:54;224.48;;;25.38;;
66886;SDS011;67239;51.680;5.976;2024-02-28T02:21:26;107.15;;;21.48;;
66886;SDS011;67239;51.680;5.976;2024-02-28T02:24:01;143.07;;;22.90;;
66886;SDS011;67239;51.680;5.976;2024-02-28T02:26:28;185.32;;;24.58;;
66886;SDS011;67239;51.680;5.976;2024-02-28T02:28:55;199.38;;;25.73;;
66886;SDS011;67239;51.680;5.976;2024-02-28T02:31:22;175.38;;;23.85;;
66886;SDS011;67239;51.680;5.976;2024-02-28T02:33:49;143.00;;;23.00;;
66886;SDS011;67239;51.680;5.976;2024-02-28T02:36:17;147.32;;;25.02;;
66886;SDS011;67239;51.680;5.976;2024-02-28T02:38:44;112.50;;;20.90;;
66886;SDS011;67239;51.680;5.976;2024-02-28T02:41:11;228.57;;;28.15;;
66886;SDS011;67239;51.680;5.976;2024-02-28T02:43:39;320.15;;;29.92;;
66886;SDS011;67239;51.680;5.976;2024-02-28T02:46:06;98.95;;;21.33;;
66886;SDS011;67239;51.680;5.976;2024-02-28T02:48:33;106.22;;;20.70;;
66886;SDS011;67239;51.680;5.976;2024-02-28T02:51:00;113.65;;;22.95;;
66886;SDS011;67239;51.680;5.976;2024-02-28T02:53:28;131.38;;;20.70;;
66886;SDS011;67239;51.680;5.976;2024-02-28T02:55:55;123.88;;;21.52;;
66886;SDS011;67239;51.680;5.976;2024-02-28T02:58:22;169.85;;;22.67;;
66886;SDS011;67239;51.680;5.976;2024-02-28T03:00:49;137.32;;;20.85;;
66886;SDS011;67239;51.680;5.976;2024-02-28T03:03:16;165.65;;;25.05;;
66886;SDS011;67239;51.680;5.976;2024-02-28T03:05:44;125.10;;;22.05;;
66886;SDS011;67239;51.680;5.976;2024-02-28T03:08:11;109.00;;;22.23;;
66886;SDS011;67239;51.680;5.976;2024-02-28T03:10:38;171.85;;;26.90;;
66886;SDS011;67239;51.680;5.976;2024-02-28T03:13:06;137.50;;;23.52;;
66886;SDS011;67239;51.680;5.976;2024-02-28T03:15:33;82.78;;;20.92;;
66886;SDS011;67239;51.680;5.976;2024-02-28T03:18:01;105.70;;;21.80;;
66886;SDS011;67239;51.680;5.976;2024-02-28T03:20:28;76.97;;;19.75;;
66886;SDS011;67239;51.680;5.976;2024-02-28T03:22:55;126.57;;;22.55;;
66886;SDS011;67239;51.680;5.976;2024-02-28T03:25:23;142.60;;;24.10;;
66886;SDS011;67239;51.680;5.976;2024-02-28T03:27:50;131.75;;;21.70;;
66886;SDS011;67239;51.680;5.976;2024-02-28T03:30:17;188.73;;;24.77;;
66886;SDS011;67239;51.680;5.976;2024-02-28T03:32:44;119.82;;;21.85;;
66886;SDS011;67239;51.680;5.976;2024-02-28T03:35:12;172.27;;;23.90;;
66886;SDS011;67239;51.680;5.976;2024-02-28T03:37:39;137.80;;;24.77;;
66886;SDS011;67239;51.680;5.976;2024-02-28T03:40:06;152.38;;;24.08;;
66886;SDS011;67239;51.680;5.976;2024-02-28T03:42:34;154.07;;;23.30;;
66886;SDS011;67239;51.680;5.976;2024-02-28T03:45:01;147.02;;;22.35;;
66886;SDS011;67239;51.680;5.976;2024-02-28T03:47:29;174.70;;;25.65;;
66886;SDS011;67239;51.680;5.976;2024-02-28T03:49:56;125.32;;;24.33;;
66886;SDS011;67239;51.680;5.976;2024-02-28T03:52:24;180.30;;;25.42;;
66886;SDS011;67239;51.680;5.976;2024-02-28T03:54:51;140.18;;;23.33;;
66886;SDS011;67239;51.680;5.976;2024-02-28T03:57:18;128.48;;;23.70;;
66886;SDS011;67239;51.680;5.976;2024-02-28T03:59:45;176.85;;;25.23;;
66886;SDS011;67239;51.680;5.976;2024-02-28T04:02:13;100.60;;;22.08;;
66886;SDS011;67239;51.680;5.976;2024-02-28T04:04:40;116.68;;;22.25;;
66886;SDS011;67239;51.680;5.976;2024-02-28T04:07:07;110.53;;;23.52;;
66886;SDS011;67239;51.680;5.976;2024-02-28T04:09:34;175.55;;;26.88;;
66886;SDS011;67239;51.680;5.976;2024-02-28T04:12:01;147.82;;;24.88;;
66886;SDS011;67239;51.680;5.976;2024-02-28T04:14:28;178.40;;;26.42;;
66886;SDS011;67239;51.680;5.976;2024-02-28T04:16:55;112.28;;;22.90;;
66886;SDS011;67239;51.680;5.976;2024-02-28T04:19:22;106.05;;;22.48;;
66886;SDS011;67239;51.680;5.976;2024-02-28T04:21:49;170.60;;;26.08;;
66886;SDS011;67239;51.680;5.976;2024-02-28T04:24:16;236.70;;;28.67;;
66886;SDS011;67239;51.680;5.976;2024-02-28T04:26:44;167.38;;;25.98;;
66886;SDS011;67239;51.680;5.976;2024-02-28T04:29:11;147.82;;;24.60;;
66886;SDS011;67239;51.680;5.976;2024-02-28T04:31:41;110.15;;;23.10;;
66886;SDS011;67239;51.680;5.976;2024-02-28T04:34:08;115.13;;;25.38;;
66886;SDS011;67239;51.680;5.976;2024-02-28T04:36:35;105.85;;;23.60;;
66886;SDS011;67239;51.680;5.976;2024-02-28T04:39:02;180.43;;;26.80;;
66886;SDS011;67239;51.680;5.976;2024-02-28T04:41:32;135.63;;;24.98;;
66886;SDS011;67239;51.680;5.976;2024-02-28T04:44:00;143.32;;;24.95;;
66886;SDS011;67239;51.680;5.976;2024-02-28T04:46:28;230.05;;;28.55;;
66886;SDS011;67239;51.680;5.976;2024-02-28T04:48:55;259.20;;;30.83;;
66886;SDS011;67239;51.680;5.976;2024-02-28T04:51:22;143.30;;;24.63;;
66886;SDS011;67239;51.680;5.976;2024-02-28T04:53:49;152.95;;;26.70;;
66886;SDS011;67239;51.680;5.976;2024-02-28T04:56:16;170.15;;;29.48;;
66886;SDS011;67239;51.680;5.976;2024-02-28T04:58:44;153.15;;;26.08;;
66886;SDS011;67239;51.680;5.976;2024-02-28T05:01:11;198.02;;;27.83;;
66886;SDS011;67239;51.680;5.976;2024-02-28T05:03:39;187.63;;;27.85;;
66886;SDS011;67239;51.680;5.976;2024-02-28T05:06:07;158.82;;;27.00;;
66886;SDS011;67239;51.680;5.976;2024-02-28T05:08:38;148.02;;;25.20;;
66886;SDS011;67239;51.680;5.976;2024-02-28T05:11:05;121.85;;;25.77;;
66886;SDS011;67239;51.680;5.976;2024-02-28T05:13:32;117.00;;;25.08;;
66886;SDS011;67239;51.680;5.976;2024-02-28T05:15:59;98.80;;;23.30;;
66886;SDS011;67239;51.680;5.976;2024-02-28T05:18:27;159.77;;;27.02;;
66886;SDS011;67239;51.680;5.976;2024-02-28T05:20:54;96.80;;;25.80;;
66886;SDS011;67239;51.680;5.976;2024-02-28T05:23:21;127.35;;;26.98;;
66886;SDS011;67239;51.680;5.976;2024-02-28T05:25:50;70.50;;;23.65;;
66886;SDS011;67239;51.680;5.976;2024-02-28T05:28:17;125.72;;;26.63;;
66886;SDS011;67239;51.680;5.976;2024-02-28T05:30:44;106.72;;;23.30;;
66886;SDS011;67239;51.680;5.976;2024-02-28T05:33:15;97.57;;;24.70;;
66886;SDS011;67239;51.680;5.976;2024-02-28T05:35:44;111.72;;;25.77;;
66886;SDS011;67239;51.680;5.976;2024-02-28T05:38:11;54.03;;;23.58;;
66886;SDS011;67239;51.680;5.976;2024-02-28T05:40:38;101.55;;;26.10;;
66886;SDS011;67239;51.680;5.976;2024-02-28T05:43:07;136.32;;;26.10;;
66886;SDS011;67239;51.680;5.976;2024-02-28T05:45:34;125.38;;;27.08;;
66886;SDS011;67239;51.680;5.976;2024-02-28T05:48:02;81.57;;;24.83;;
66886;SDS011;67239;51.680;5.976;2024-02-28T05:50:29;100.43;;;27.23;;
66886;SDS011;67239;51.680;5.976;2024-02-28T05:52:58;96.13;;;24.75;;
66886;SDS011;67239;51.680;5.976;2024-02-28T05:55:25;116.22;;;26.90;;
66886;SDS011;67239;51.680;5.976;2024-02-28T05:57:53;142.85;;;27.90;;
66886;SDS011;67239;51.680;5.976;2024-02-28T06:00:20;149.00;;;29.00;;
66886;SDS011;67239;51.680;5.976;2024-02-28T06:02:47;144.77;;;28.45;;
66886;SDS011;67239;51.680;5.976;2024-02-28T06:05:14;155.10;;;29.30;;
66886;SDS011;67239;51.680;5.976;2024-02-28T06:07:41;143.82;;;29.05;;
66886;SDS011;67239;51.680;5.976;2024-02-28T06:10:08;122.93;;;29.70;;
66886;SDS011;67239;51.680;5.976;2024-02-28T06:12:37;81.97;;;28.20;;
66886;SDS011;67239;51.680;5.976;2024-02-28T06:15:04;72.88;;;27.17;;
66886;SDS011;67239;51.680;5.976;2024-02-28T06:17:32;85.75;;;27.67;;
66886;SDS011;67239;51.680;5.976;2024-02-28T06:19:59;76.28;;;26.73;;
66886;SDS011;67239;51.680;5.976;2024-02-28T06:22:26;91.50;;;31.35;;
66886;SDS011;67239;51.680;5.976;2024-02-28T06:24:54;162.70;;;39.13;;
66886;SDS011;67239;51.680;5.976;2024-02-28T06:27:21;135.02;;;40.22;;
66886;SDS011;67239;51.680;5.976;2024-02-28T06:29:48;142.35;;;32.72;;
66886;SDS011;67239;51.680;5.976;2024-02-28T06:32:15;128.40;;;31.35;;
66886;SDS011;67239;51.680;5.976;2024-02-28T06:34:42;95.97;;;29.35;;
66886;SDS011;67239;51.680;5.976;2024-02-28T06:37:10;216.27;;;33.35;;
66886;SDS011;67239;51.680;5.976;2024-02-28T06:39:37;132.75;;;30.73;;
66886;SDS011;67239;51.680;5.976;2024-02-28T06:42:04;143.82;;;32.25;;
66886;SDS011;67239;51.680;5.976;2024-02-28T06:44:31;112.82;;;28.88;;
66886;SDS011;67239;51.680;5.976;2024-02-28T06:46:58;161.85;;;31.88;;
66886;SDS011;67239;51.680;5.976;2024-02-28T06:49:26;123.15;;;31.90;;
66886;SDS011;67239;51.680;5.976;2024-02-28T06:51:53;138.73;;;30.45;;
66886;SDS011;67239;51.680;5.976;2024-02-28T06:54:21;92.18;;;28.63;;
66886;SDS011;67239;51.680;5.976;2024-02-28T06:56:48;86.72;;;28.88;;
66886;SDS011;67239;51.680;5.976;2024-02-28T06:59:16;77.43;;;28.20;;
66886;SDS011;67239;51.680;5.976;2024-02-28T07:01:43;136.70;;;30.00;;
66886;SDS011;67239;51.680;5.976;2024-02-28T07:04:10;127.63;;;31.17;;
66886;SDS011;67239;51.680;5.976;2024-02-28T07:06:37;140.30;;;31.23;;
66886;SDS011;67239;51.680;5.976;2024-02-28T07:09:07;85.30;;;27.27;;
66886;SDS011;67239;51.680;5.976;2024-02-28T07:11:37;86.95;;;28.48;;
66886;SDS011;67239;51.680;5.976;2024-02-28T07:14:05;83.30;;;27.48;;
66886;SDS011;67239;51.680;5.976;2024-02-28T07:16:32;75.20;;;28.60;;
66886;SDS011;67239;51.680;5.976;2024-02-28T07:19:00;80.03;;;27.33;;
66886;SDS011;67239;51.680;5.976;2024-02-28T07:21:28;76.40;;;27.52;;
66886;SDS011;67239;51.680;5.976;2024-02-28T07:23:57;94.47;;;27.70;;
66886;SDS011;67239;51.680;5.976;2024-02-28T07:26:24;72.72;;;26.50;;
66886;SDS011;67239;51.680;5.976;2024-02-28T07:28:53;59.53;;;25.50;;
66886;SDS011;67239;51.680;5.976;2024-02-28T07:31:20;73.40;;;26.85;;
66886;SDS011;67239;51.680;5.976;2024-02-28T07:33:48;75.90;;;25.85;;
66886;SDS011;67239;51.680;5.976;2024-02-28T07:36:16;62.15;;;24.45;;
66886;SDS011;67239;51.680;5.976;2024-02-28T07:38:43;62.45;;;26.48;;
66886;SDS011;67239;51.680;5.976;2024-02-28T07:41:10;62.72;;;25.75;;
66886;SDS011;67239;51.680;5.976;2024-02-28T07:43:41;53.67;;;25.02;;
66886;SDS011;67239;51.680;5.976;2024-02-28T07:46:09;62.50;;;25.33;;
66886;SDS011;67239;51.680;5.976;2024-02-28T07:48:38;54.70;;;24.38;;
66886;SDS011;67239;51.680;5.976;2024-02-28T07:51:07;56.15;;;24.25;;
66886;SDS011;67239;51.680;5.976;2024-02-28T07:53:35;54.38;;;24.75;;
66886;SDS011;67239;51.680;5.976;2024-02-28T07:56:02;56.42;;;25.95;;
66886;SDS011;67239;51.680;5.976;2024-02-28T07:58:29;54.20;;;25.10;;
66886;SDS011;67239;51.680;5.976;2024-02-28T08:00:57;54.88;;;24.20;;
66886;SDS011;67239;51.680;5.976;2024-02-28T08:03:24;56.53;;;25.60;;
66886;SDS011;67239;51.680;5.976;2024-02-28T08:05:51;53.65;;;25.77;;
66886;SDS011;67239;51.680;5.976;2024-02-28T08:08:18;53.45;;;24.58;;
66886;SDS011;67239;51.680;5.976;2024-02-28T08:10:45;47.50;;;24.70;;
66886;SDS011;67239;51.680;5.976;2024-02-28T08:13:14;61.25;;;26.92;;
66886;SDS011;67239;51.680;5.976;2024-02-28T08:15:41;52.88;;;24.25;;
66886;SDS011;67239;51.680;5.976;2024-02-28T08:18:08;47.65;;;24.20;;
66886;SDS011;67239;51.680;5.976;2024-02-28T08:20:38;58.15;;;25.25;;
66886;SDS011;67239;51.680;5.976;2024-02-28T08:23:05;48.95;;;25.08;;
66886;SDS011;67239;51.680;5.976;2024-02-28T08:25:32;51.78;;;26.45;;
66886;SDS011;67239;51.680;5.976;2024-02-28T08:27:59;49.38;;;23.77;;
66886;SDS011;67239;51.680;5.976;2024-02-28T08:30:27;49.83;;;25.42;;
66886;SDS011;67239;51.680;5.976;2024-02-28T08:32:54;50.72;;;25.67;;
66886;SDS011;67239;51.680;5.976;2024-02-28T08:35:21;52.38;;;24.85;;
66886;SDS011;67239;51.680;5.976;2024-02-28T08:37:50;51.67;;;24.08;;
66886;SDS011;67239;51.680;5.976;2024-02-28T08:40:17;51.63;;;24.52;;
66886;SDS011;67239;51.680;5.976;2024-02-28T08:42:44;55.35;;;25.08;;
66886;SDS011;67239;51.680;5.976;2024-02-28T08:45:13;52.42;;;24.30;;
66886;SDS011;67239;51.680;5.976;2024-02-28T08:47:40;54.55;;;25.88;;
66886;SDS011;67239;51.680;5.976;2024-02-28T08:50:08;47.60;;;24.00;;
66886;SDS011;67239;51.680;5.976;2024-02-28T08:52:36;53.85;;;24.83;;
66886;SDS011;67239;51.680;5.976;2024-02-28T08:55:03;52.17;;;24.63;;
66886;SDS011;67239;51.680;5.976;2024-02-28T08:57:31;48.45;;;24.70;;
66886;SDS011;67239;51.680;5.976;2024-02-28T08:59:58;51.42;;;24.05;;
66886;SDS011;67239;51.680;5.976;2024-02-28T09:02:25;58.72;;;23.48;;
66886;SDS011;67239;51.680;5.976;2024-02-28T09:04:52;47.35;;;23.15;;
66886;SDS011;67239;51.680;5.976;2024-02-28T09:07:23;52.90;;;24.02;;
66886;SDS011;67239;51.680;5.976;2024-02-28T09:09:50;59.30;;;22.58;;
66886;SDS011;67239;51.680;5.976;2024-02-28T09:12:17;42.08;;;22.08;;
66886;SDS011;67239;51.680;5.976;2024-02-28T09:14:44;45.53;;;22.13;;
66886;SDS011;67239;51.680;5.976;2024-02-28T09:17:12;39.83;;;21.42;;
66886;SDS011;67239;51.680;5.976;2024-02-28T09:19:39;41.50;;;19.65;;
66886;SDS011;67239;51.680;5.976;2024-02-28T09:22:06;36.97;;;20.63;;
66886;SDS011;67239;51.680;5.976;2024-02-28T09:24:33;42.22;;;21.52;;
66886;SDS011;67239;51.680;5.976;2024-02-28T09:27:02;39.85;;;20.05;;
66886;SDS011;67239;51.680;5.976;2024-02-28T09:29:30;43.92;;;21.50;;
66886;SDS011;67239;51.680;5.976;2024-02-28T09:31:57;38.50;;;20.45;;
66886;SDS011;67239;51.680;5.976;2024-02-28T09:34:24;42.65;;;21.92;;
66886;SDS011;67239;51.680;5.976;2024-02-28T09:36:51;37.03;;;20.70;;
66886;SDS011;67239;51.680;5.976;2024-02-28T09:39:19;39.58;;;20.20;;
66886;SDS011;67239;51.680;5.976;2024-02-28T09:41:47;43.22;;;20.98;;
66886;SDS011;67239;51.680;5.976;2024-02-28T09:44:17;51.60;;;20.45;;
66886;SDS011;67239;51.680;5.976;2024-02-28T09:46:48;37.80;;;19.52;;
66886;SDS011;67239;51.680;5.976;2024-02-28T09:49:18;33.45;;;19.40;;
66886;SDS011;67239;51.680;5.976;2024-02-28T09:51:47;35.20;;;18.77;;
66886;SDS011;67239;51.680;5.976;2024-02-28T09:54:18;34.33;;;18.40;;
66886;SDS011;67239;51.680;5.976;2024-02-28T09:56:47;41.53;;;20.13;;
66886;SDS011;67239;51.680;5.976;2024-02-28T09:59:15;39.08;;;19.00;;
66886;SDS011;67239;51.680;5.976;2024-02-28T10:01:46;34.97;;;18.70;;
66886;SDS011;67239;51.680;5.976;2024-02-28T10:04:27;36.80;;;20.23;;
66886;SDS011;67239;51.680;5.976;2024-02-28T10:06:56;41.83;;;19.35;;
66886;SDS011;67239;51.680;5.976;2024-02-28T10:09:26;33.30;;;18.38;;
66886;SDS011;67239;51.680;5.976;2024-02-28T10:11:53;39.80;;;19.63;;
66886;SDS011;67239;51.680;5.976;2024-02-28T10:14:20;33.35;;;18.48;;
66886;SDS011;67239;51.680;5.976;2024-02-28T10:16:47;31.10;;;18.80;;
66886;SDS011;67239;51.680;5.976;2024-02-28T10:19:17;33.83;;;19.00;;
66886;SDS011;67239;51.680;5.976;2024-02-28T10:21:50;29.48;;;17.98;;
66886;SDS011;67239;51.680;5.976;2024-02-28T10:24:18;35.72;;;19.20;;
66886;SDS011;67239;51.680;5.976;2024-02-28T10:26:46;40.05;;;18.88;;
66886;SDS011;67239;51.680;5.976;2024-02-28T10:29:24;34.50;;;18.90;;
66886;SDS011;67239;51.680;5.976;2024-02-28T10:31:52;34.20;;;19.00;;
66886;SDS011;67239;51.680;5.976;2024-02-28T10:34:19;32.33;;;18.50;;
66886;SDS011;67239;51.680;5.976;2024-02-28T10:36:47;34.95;;;18.15;;
66886;SDS011;67239;51.680;5.976;2024-02-28T10:39:15;31.67;;;18.73;;
66886;SDS011;67239;51.680;5.976;2024-02-28T10:41:43;36.35;;;19.52;;
66886;SDS011;67239;51.680;5.976;2024-02-28T10:44:13;37.72;;;20.63;;
66886;SDS011;67239;51.680;5.976;2024-02-28T10:46:43;37.38;;;19.90;;
66886;SDS011;67239;51.680;5.976;2024-02-28T10:49:15;30.80;;;18.77;;
66886;SDS011;67239;51.680;5.976;2024-02-28T10:51:43;41.17;;;21.73;;
66886;SDS011;67239;51.680;5.976;2024-02-28T10:54:15;32.57;;;19.03;;
66886;SDS011;67239;51.680;5.976;2024-02-28T10:56:45;47.20;;;19.35;;
66886;SDS011;67239;51.680;5.976;2024-02-28T10:59:12;42.28;;;19.67;;
66886;SDS011;67239;51.680;5.976;2024-02-28T11:01:41;28.88;;;17.60;;
66886;SDS011;67239;51.680;5.976;2024-02-28T11:04:15;32.13;;;19.17;;
66886;SDS011;67239;51.680;5.976;2024-02-28T11:06:56;33.90;;;17.65;;
66886;SDS011;67239;51.680;5.976;2024-02-28T11:09:24;27.92;;;17.33;;
66886;SDS011;67239;51.680;5.976;2024-02-28T11:11:55;38.90;;;18.05;;
66886;SDS011;67239;51.680;5.976;2024-02-28T11:14:22;39.40;;;18.63;;
66886;SDS011;67239;51.680;5.976;2024-02-28T11:16:59;28.02;;;18.10;;
66886;SDS011;67239;51.680;5.976;2024-02-28T11:19:32;37.17;;;18.23;;
66886;SDS011;67239;51.680;5.976;2024-02-28T11:22:02;29.75;;;17.38;;
66886;SDS011;67239;51.680;5.976;2024-02-28T11:24:33;30.85;;;16.73;;
66886;SDS011;67239;51.680;5.976;2024-02-28T11:27:03;32.33;;;17.67;;
66886;SDS011;67239;51.680;5.976;2024-02-28T11:29:33;31.23;;;17.08;;
66886;SDS011;67239;51.680;5.976;2024-02-28T11:32:00;30.85;;;17.00;;
66886;SDS011;67239;51.680;5.976;2024-02-28T11:34:27;38.28;;;17.02;;
66886;SDS011;67239;51.680;5.976;2024-02-28T11:36:54;29.52;;;17.73;;
66886;SDS011;67239;51.680;5.976;2024-02-28T11:39:23;30.25;;;17.67;;
66886;SDS011;67239;51.680;5.976;2024-02-28T11:41:54;31.80;;;18.02;;
66886;SDS011;67239;51.680;5.976;2024-02-28T11:44:21;32.50;;;18.95;;
66886;SDS011;67239;51.680;5.976;2024-02-28T11:46:49;32.65;;;18.63;;
66886;SDS011;67239;51.680;5.976;2024-02-28T11:49:16;30.83;;;18.70;;
66886;SDS011;67239;51.680;5.976;2024-02-28T11:51:44;33.65;;;18.38;;
66886;SDS011;67239;51.680;5.976;2024-02-28T11:54:12;31.05;;;19.08;;
66886;SDS011;67239;51.680;5.976;2024-02-28T11:56:40;31.10;;;18.30;;
66886;SDS011;67239;51.680;5.976;2024-02-28T11:59:08;37.10;;;19.30;;
66886;SDS011;67239;51.680;5.976;2024-02-28T12:01:40;30.42;;;17.80;;
66886;SDS011;67239;51.680;5.976;2024-02-28T12:04:11;27.08;;;17.98;;
66886;SDS011;67239;51.680;5.976;2024-02-28T12:06:40;33.42;;;18.98;;
66886;SDS011;67239;51.680;5.976;2024-02-28T12:09:08;29.05;;;18.33;;
66886;SDS011;67239;51.680;5.976;2024-02-28T12:11:44;43.75;;;18.88;;
66886;SDS011;67239;51.680;5.976;2024-02-28T12:14:13;33.63;;;19.35;;
66886;SDS011;67239;51.680;5.976;2024-02-28T12:16:40;33.15;;;19.48;;
66886;SDS011;67239;51.680;5.976;2024-02-28T12:19:07;31.25;;;19.27;;
66886;SDS011;67239;51.680;5.976;2024-02-28T12:21:39;35.47;;;19.27;;
66886;SDS011;67239;51.680;5.976;2024-02-28T12:24:08;32.67;;;20.83;;
66886;SDS011;67239;51.680;5.976;2024-02-28T12:26:37;38.65;;;21.02;;
66886;SDS011;67239;51.680;5.976;2024-02-28T12:29:06;38.92;;;21.75;;
66886;SDS011;67239;51.680;5.976;2024-02-28T12:31:33;37.53;;;21.38;;
66886;SDS011;67239;51.680;5.976;2024-02-28T12:34:01;35.10;;;20.98;;
66886;SDS011;67239;51.680;5.976;2024-02-28T12:36:30;47.20;;;22.83;;
66886;SDS011;67239;51.680;5.976;2024-02-28T12:38:59;44.28;;;23.08;;
66886;SDS011;67239;51.680;5.976;2024-02-28T12:41:27;53.30;;;24.63;;
66886;SDS011;67239;51.680;5.976;2024-02-28T12:43:54;55.70;;;23.95;;
66886;SDS011;67239;51.680;5.976;2024-02-28T12:46:22;45.28;;;22.73;;
66886;SDS011;67239;51.680;5.976;2024-02-28T12:48:49;37.70;;;22.08;;
66886;SDS011;67239;51.680;5.976;2024-02-28T12:54:11;40.60;;;20.83;;
66886;SDS011;67239;51.680;5.976;2024-02-28T12:56:42;40.50;;;21.48;;
66886;SDS011;67239;51.680;5.976;2024-02-28T12:59:12;36.45;;;21.00;;
66886;SDS011;67239;51.680;5.976;2024-02-28T13:01:39;36.30;;;20.10;;
66886;SDS011;67239;51.680;5.976;2024-02-28T13:04:07;53.38;;;21.15;;
66886;SDS011;67239;51.680;5.976;2024-02-28T13:06:34;40.38;;;21.13;;
66886;SDS011;67239;51.680;5.976;2024-02-28T13:09:01;34.58;;;20.73;;
66886;SDS011;67239;51.680;5.976;2024-02-28T13:11:29;42.42;;;19.85;;
66886;SDS011;67239;51.680;5.976;2024-02-28T13:13:57;35.05;;;20.45;;
66886;SDS011;67239;51.680;5.976;2024-02-28T13:16:24;41.65;;;19.50;;
66886;SDS011;67239;51.680;5.976;2024-02-28T13:18:51;50.72;;;22.08;;
66886;SDS011;67239;51.680;5.976;2024-02-28T13:21:19;36.67;;;19.83;;
66886;SDS011;67239;51.680;5.976;2024-02-28T13:23:46;48.25;;;19.80;;
66886;SDS011;67239;51.680;5.976;2024-02-28T13:26:14;34.80;;;18.95;;
66886;SDS011;67239;51.680;5.976;2024-02-28T13:28:45;39.50;;;19.45;;
66886;SDS011;67239;51.680;5.976;2024-02-28T13:31:17;39.83;;;18.73;;
66886;SDS011;67239;51.680;5.976;2024-02-28T13:33:45;28.35;;;16.38;;
66886;SDS011;67239;51.680;5.976;2024-02-28T13:36:12;32.72;;;18.38;;
66886;SDS011;67239;51.680;5.976;2024-02-28T13:38:39;31.60;;;17.33;;
66886;SDS011;67239;51.680;5.976;2024-02-28T13:41:06;35.78;;;17.90;;
66886;SDS011;67239;51.680;5.976;2024-02-28T13:43:33;29.55;;;16.92;;
66886;SDS011;67239;51.680;5.976;2024-02-28T13:46:00;30.45;;;17.63;;
66886;SDS011;67239;51.680;5.976;2024-02-28T13:48:28;32.85;;;17.58;;
66886;SDS011;67239;51.680;5.976;2024-02-28T13:50:55;36.63;;;17.08;;
66886;SDS011;67239;51.680;5.976;2024-02-28T13:53:23;35.92;;;16.80;;
66886;SDS011;67239;51.680;5.976;2024-02-28T13:55:51;31.50;;;16.33;;
66886;SDS011;67239;51.680;5.976;2024-02-28T13:58:18;34.33;;;16.88;;
66886;SDS011;67239;51.680;5.976;2024-02-28T14:00:46;27.35;;;16.42;;
66886;SDS011;67239;51.680;5.976;2024-02-28T14:03:14;32.47;;;15.95;;
66886;SDS011;67239;51.680;5.976;2024-02-28T14:05:42;32.92;;;16.23;;
66886;SDS011;67239;51.680;5.976;2024-02-28T14:08:10;30.60;;;15.40;;
66886;SDS011;67239;51.680;5.976;2024-02-28T14:10:39;33.10;;;16.20;;
66886;SDS011;67239;51.680;5.976;2024-02-28T14:13:07;53.40;;;17.63;;
66886;SDS011;67239;51.680;5.976;2024-02-28T14:15:34;35.70;;;17.67;;
66886;SDS011;67239;51.680;5.976;2024-02-28T14:18:03;32.00;;;17.27;;
66886;SDS011;67239;51.680;5.976;2024-02-28T14:20:31;40.85;;;17.60;;
66886;SDS011;67239;51.680;5.976;2024-02-28T14:22:58;34.50;;;16.58;;
66886;SDS011;67239;51.680;5.976;2024-02-28T14:25:25;29.75;;;16.38;;